Time;durP1;ratioP1;P1;durP2;ratioP2;P2;SDS_P1;SDS_P2;PMS_P1;PMS_P2;Temp;Humidity;BMP_temperature;BMP_pressure;BME280_temperature;BME280_humidity;BME280_pressure;Samples;Min_cycle;Max_cycle;Signal;HPM_P1;HPM_P2
2022/11/14 00:00:23;;;;;;;44.30;36.93;;;;;21.60;100512.00;;;;2078895;28;20654;-49
2022/11/14 00:01:23;;;;;;;40.10;35.27;;;;;21.60;100513.00;;;;2071434;28;20600;-49
2022/11/14 00:02:23;;;;;;;40.93;33.77;;;;;21.50;100504.00;;;;2069536;28;20210;-49
2022/11/14 00:03:24;;;;;;;41.87;35.73;;;;;21.60;100508.00;;;;2069930;28;20214;-48
2022/11/14 00:04:24;;;;;;;39.90;34.57;;;;;21.60;100509.00;;;;2072487;28;20301;-48
2022/11/14 00:05:24;;;;;;;43.53;34.47;;;;;21.60;100505.00;;;;2078943;28;20213;-49
2022/11/14 00:06:25;;;;;;;38.80;33.13;;;;;21.50;100501.00;;;;2072765;28;20217;-49
2022/11/14 00:07:25;;;;;;;41.80;34.00;;;;;21.50;100504.00;;;;2078889;28;20271;-49
2022/11/14 00:08:25;;;;;;;36.80;32.20;;;;;21.50;100502.00;;;;2072329;28;20222;-49
2022/11/14 00:09:26;;;;;;;38.03;31.70;;;;;21.50;100505.00;;;;2073201;28;20217;-48
2022/11/14 00:10:27;;;;;;;34.57;30.70;;;;;21.50;100500.00;;;;2078883;28;20220;-49
2022/11/14 00:11:27;;;;;;;36.43;31.10;;;;;21.50;100508.00;;;;2078518;28;20452;-49
2022/11/14 00:12:28;;;;;;;35.77;31.90;;;;;21.50;100501.00;;;;2077874;28;20213;-49
2022/11/14 00:13:28;;;;;;;34.97;29.77;;;;;21.50;100510.00;;;;2079068;28;20276;-49
2022/11/14 00:14:28;;;;;;;34.90;31.07;;;;;21.50;100504.00;;;;2078547;28;20279;-49
2022/11/14 00:15:29;;;;;;;33.03;29.40;;;;;21.50;100517.00;;;;2078451;28;20233;-49
2022/11/14 00:16:29;;;;;;;35.27;30.63;;;;;21.50;100513.00;;;;2078708;28;20222;-49
2022/11/14 00:17:29;;;;;;;33.70;28.97;;;;;21.50;100504.00;;;;2072330;28;20233;-49
2022/11/14 00:18:30;;;;;;;37.23;28.37;;;;;21.40;100516.00;;;;2074481;28;20661;-49
2022/11/14 00:19:30;;;;;;;32.20;28.23;;;;;21.50;100438.00;;;;2078806;28;20731;-49
2022/11/14 00:20:31;;;;;;;32.23;27.47;;;;;21.50;100516.00;;;;2068750;28;20244;-49
2022/11/14 00:21:31;;;;;;;32.17;27.70;;;;;21.50;100514.00;;;;2077879;28;20705;-50
2022/11/14 00:22:31;;;;;;;31.90;27.07;;;;;21.50;100518.00;;;;2077773;28;20220;-49
2022/11/14 00:23:32;;;;;;;29.13;26.00;;;;;21.50;100510.00;;;;2074597;28;20222;-49
2022/11/14 00:24:32;;;;;;;31.27;26.07;;;;;21.50;100511.00;;;;2075485;28;20260;-49
2022/11/14 00:25:32;;;;;;;30.70;26.60;;;;;21.50;100511.00;;;;2078662;28;20260;-49
2022/11/14 00:26:33;;;;;;;29.63;25.73;;;;;21.50;100503.00;;;;2078599;28;20217;-49
2022/11/14 00:27:33;;;;;;;31.30;26.13;;;;;21.40;100498.00;;;;2071095;28;20848;-49
2022/11/14 00:28:34;;;;;;;29.80;25.23;;;;;21.40;100501.00;;;;2075796;28;20989;-49
2022/11/14 00:29:34;;;;;;;27.87;24.27;;;;;21.40;100501.00;;;;2075941;28;20217;-49
2022/11/14 00:30:34;;;;;;;27.43;24.30;;;;;21.50;100504.00;;;;2077214;28;20252;-49
2022/11/14 00:31:35;;;;;;;27.80;24.80;;;;;21.40;100500.00;;;;2078791;28;20221;-49
2022/11/14 00:32:35;;;;;;;27.50;23.73;;;;;21.40;100496.00;;;;2077799;28;20280;-49
2022/11/14 00:33:35;;;;;;;28.50;23.70;;;;;21.40;100502.00;;;;2078574;28;20222;-49
2022/11/14 00:34:36;;;;;;;25.27;22.57;;;;;21.40;100503.00;;;;2077563;28;20291;-49
2022/11/14 00:35:36;;;;;;;27.80;22.90;;;;;21.40;100500.00;;;;2077683;28;20254;-48
2022/11/14 00:36:36;;;;;;;27.90;23.23;;;;;21.40;100502.00;;;;2078379;28;20233;-49
2022/11/14 00:37:37;;;;;;;28.20;22.97;;;;;21.40;100497.00;;;;2078894;28;20225;-48
2022/11/14 00:38:37;;;;;;;25.67;22.07;;;;;21.40;100442.00;;;;2078547;28;20217;-49
2022/11/14 00:39:38;;;;;;;23.47;21.00;;;;;21.40;100499.00;;;;2078356;28;20213;-54
2022/11/14 00:40:38;;;;;;;25.63;21.63;;;;;21.40;100493.00;;;;2078696;28;20705;-51
2022/11/14 00:41:39;;;;;;;23.10;20.60;;;;;21.40;100486.00;;;;2078763;28;20586;-50
2022/11/14 00:42:40;;;;;;;22.27;19.38;;;;;21.40;100493.00;;;;2077830;28;20217;-49
2022/11/14 00:43:41;;;;;;;24.77;21.70;;;;;21.40;100490.00;;;;2077890;28;20217;-49
2022/11/14 00:44:41;;;;;;;26.50;20.70;;;;;21.40;100489.00;;;;2078528;28;20313;-48
2022/11/14 00:45:43;;;;;;;23.93;19.97;;;;;21.40;100489.00;;;;2078299;28;20213;-49
2022/11/14 00:46:43;;;;;;;22.15;19.75;;;;;21.20;100483.00;;;;2078805;28;20628;-49
2022/11/14 00:47:43;;;;;;;21.67;19.27;;;;;21.40;100484.00;;;;2078928;28;20226;-49
2022/11/14 00:48:44;;;;;;;21.90;19.30;;;;;21.40;100482.00;;;;2078609;28;20237;-49
2022/11/14 00:49:44;;;;;;;21.77;19.40;;;;;21.30;100481.00;;;;2078266;28;20276;-49
2022/11/14 00:50:44;;;;;;;22.00;18.83;;;;;21.40;100479.00;;;;2078746;28;20280;-49
2022/11/14 00:51:45;;;;;;;21.77;18.93;;;;;21.40;100474.00;;;;2075262;28;21017;-49
2022/11/14 00:52:46;;;;;;;21.47;19.27;;;;;21.30;100486.00;;;;2069652;28;20214;-49
2022/11/14 00:53:46;;;;;;;22.17;18.47;;;;;21.30;100479.00;;;;2070607;28;20488;-49
2022/11/14 00:54:46;;;;;;;22.00;18.63;;;;;21.40;100473.00;;;;2070116;28;20252;-49
2022/11/14 00:55:47;;;;;;;20.73;17.63;;;;;21.40;100477.00;;;;2070950;28;20237;-49
2022/11/14 00:56:47;;;;;;;22.30;18.27;;;;;21.30;100476.00;;;;2079363;28;20220;-49
2022/11/14 00:57:47;;;;;;;18.60;16.60;;;;;21.40;100478.00;;;;2079425;28;20214;-49
2022/11/14 00:58:47;;;;;;;18.80;16.80;;;;;21.40;100471.00;;;;2069981;28;20244;-49
2022/11/14 00:59:48;;;;;;;19.20;17.10;;;;;21.40;100475.00;;;;2071686;28;20292;-49
2022/11/14 01:00:48;;;;;;;20.13;16.73;;;;;21.40;100472.00;;;;2071318;28;20225;-49
2022/11/14 01:01:48;;;;;;;19.97;17.30;;;;;21.30;100481.00;;;;2074936;28;20237;-50
2022/11/14 01:02:49;;;;;;;19.27;17.03;;;;;21.30;100471.00;;;;2080210;28;20209;-49
2022/11/14 01:03:50;;;;;;;18.63;16.73;;;;;21.30;100468.00;;;;2074148;28;20218;-49
2022/11/14 01:04:50;;;;;;;18.80;16.80;;;;;21.30;100468.00;;;;2071697;28;20217;-50
2022/11/14 01:05:50;;;;;;;19.67;16.07;;;;;21.30;100460.00;;;;2071959;28;20457;-49
2022/11/14 01:06:51;;;;;;;18.50;16.60;;;;;21.40;100466.00;;;;2072098;28;20221;-48
2022/11/14 01:07:51;;;;;;;17.97;16.00;;;;;21.30;100465.00;;;;2071779;28;20218;-50
2022/11/14 01:08:52;;;;;;;18.70;16.63;;;;;21.30;100470.00;;;;2071745;28;20226;-50
2022/11/14 01:09:52;;;;;;;19.50;15.73;;;;;21.30;100466.00;;;;2072211;28;20220;-51
2022/11/14 01:10:52;;;;;;;16.93;14.80;;;;;21.30;100461.00;;;;2071711;28;20206;-51
2022/11/14 01:11:53;;;;;;;17.93;16.00;;;;;21.30;100461.00;;;;2071043;28;20210;-51
2022/11/14 01:12:53;;;;;;;17.53;15.57;;;;;21.30;100450.00;;;;2072138;28;20210;-51
2022/11/14 01:13:53;;;;;;;17.40;15.60;;;;;21.10;100459.00;;;;2072018;28;20214;-51
2022/11/14 01:14:54;;;;;;;16.63;14.93;;;;;21.30;100458.00;;;;2071893;28;20254;-51
2022/11/14 01:15:54;;;;;;;16.53;14.73;;;;;21.30;100453.00;;;;2071472;28;20225;-50
2022/11/14 01:16:54;;;;;;;16.80;15.03;;;;;21.30;100449.00;;;;2071347;28;20224;-50
2022/11/14 01:17:55;;;;;;;17.00;14.80;;;;;21.30;100459.00;;;;2071284;28;21050;-50
2022/11/14 01:18:55;;;;;;;16.23;14.47;;;;;21.30;100453.00;;;;2072057;28;20249;-50
2022/11/14 01:19:55;;;;;;;17.80;15.00;;;;;21.30;100442.00;;;;2071337;28;20210;-50
2022/11/14 01:20:56;;;;;;;16.17;14.50;;;;;21.30;100438.00;;;;2071175;28;20214;-51
2022/11/14 01:21:56;;;;;;;16.37;14.60;;;;;21.30;100435.00;;;;2070184;28;20275;-50
2022/11/14 01:22:56;;;;;;;14.87;13.27;;;;;21.30;100433.00;;;;2071195;28;20218;-51
2022/11/14 01:23:57;;;;;;;16.30;14.57;;;;;21.30;100433.00;;;;2071733;28;20214;-51
2022/11/14 01:24:57;;;;;;;15.40;13.23;;;;;21.30;100433.00;;;;2071795;28;20210;-51
2022/11/14 01:26:02;;;;;;;15.20;13.70;;;;;21.30;100429.00;;;;2071954;28;20245;-51
2022/11/14 01:27:02;;;;;;;15.52;13.70;;;;;21.20;100446.00;;;;2071222;28;20592;-51
2022/11/14 01:28:07;;;;;;;16.33;14.50;;;;;21.20;100430.00;;;;2073660;28;20241;-50
2022/11/14 01:29:07;;;;;;;16.10;14.32;;;;;21.20;100433.00;;;;2076692;28;20213;-51
2022/11/14 01:30:08;;;;;;;14.20;12.80;;;;;21.20;100430.00;;;;2072095;28;20221;-50
2022/11/14 01:31:16;;;;;;;15.47;13.83;;;;;21.20;100419.00;;;;2076728;28;20213;-50
2022/11/14 01:32:16;;;;;;;14.27;12.88;;;;;21.30;100423.00;;;;2071166;28;20285;-50
2022/11/14 01:33:17;;;;;;;13.03;11.73;;;;;21.30;100421.00;;;;2079115;28;20244;-51
2022/11/14 01:34:17;;;;;;;14.30;12.80;;;;;21.20;100416.00;;;;2079702;28;20259;-51
2022/11/14 01:35:17;;;;;;;13.53;12.13;;;;;21.20;100425.00;;;;2079855;28;20213;-50
2022/11/14 01:36:18;;;;;;;13.90;12.40;;;;;21.20;100420.00;;;;2080039;28;20234;-51
2022/11/14 01:37:18;;;;;;;14.63;13.13;;;;;21.20;100420.00;;;;2079539;28;20220;-51
2022/11/14 01:38:18;;;;;;;14.03;12.53;;;;;21.20;100419.00;;;;2079994;28;20205;-51
2022/11/14 01:39:19;;;;;;;13.50;12.10;;;;;21.20;100417.00;;;;2079865;28;20210;-49
2022/11/14 01:40:19;;;;;;;15.90;12.50;;;;;21.20;100424.00;;;;2079532;28;20295;-50
2022/11/14 01:41:20;;;;;;;13.13;11.73;;;;;21.20;100418.00;;;;2079988;28;20380;-50
2022/11/14 01:42:20;;;;;;;12.63;11.33;;;;;21.20;100411.00;;;;2078022;28;20206;-51
2022/11/14 01:43:23;;;;;;;13.47;12.07;;;;;21.20;100420.00;;;;2079875;28;20209;-51
2022/11/14 01:44:48;;;;;;;13.07;11.45;;;;;21.20;100406.00;;;;2079857;28;20646;-50
2022/11/14 01:46:04;;;;;;;13.02;11.40;;;;;21.20;100401.00;;;;2079731;28;20221;-51
2022/11/14 01:47:04;;;;;;;13.73;12.38;;;;;21.20;100404.00;;;;2079652;28;20586;-49
2022/11/14 01:48:09;;;;;;;13.30;11.97;;;;;21.20;100391.00;;;;2071642;28;20271;-51
2022/11/14 01:49:12;;;;;;;11.82;10.63;;;;;21.10;100389.00;;;;2071149;28;20210;-50
2022/11/14 01:50:12;;;;;;;12.25;10.95;;;;;21.10;100395.00;;;;2064016;28;20215;-50
2022/11/14 01:51:46;;;;;;;12.03;10.83;;;;;21.10;100392.00;;;;2062670;28;20292;-51
2022/11/14 01:52:47;;;;;;;13.07;11.60;;;;;21.10;100366.00;;;;2070619;28;20605;-51
2022/11/14 01:53:47;;;;;;;12.47;11.27;;;;;21.10;100381.00;;;;2073520;28;20304;-51
2022/11/14 01:54:50;;;;;;;12.20;11.00;;;;;21.20;100377.00;;;;2070790;28;20226;-50
2022/11/14 01:55:50;;;;;;;12.10;10.90;;;;;21.10;100375.00;;;;2062309;28;20457;-50
2022/11/14 01:56:58;;;;;;;11.90;10.80;;;;;21.10;100381.00;;;;2054890;28;20603;-50
2022/11/14 01:57:58;;;;;;;12.20;11.00;;;;;21.10;100379.00;;;;2054858;28;20216;-50
2022/11/14 01:59:08;;;;;;;12.13;10.93;;;;;21.10;100363.00;;;;2054720;28;20246;-51
2022/11/14 02:00:10;;;;;;;12.43;11.15;;;;;21.10;100370.00;;;;2056128;28;20227;-50
2022/11/14 02:01:10;;;;;;;12.00;10.80;;;;;21.10;100361.00;;;;2063598;28;20219;-51
2022/11/14 02:02:20;;;;;;;12.13;10.93;;;;;21.10;100373.00;;;;2061074;28;20672;-50
2022/11/14 02:03:21;;;;;;;12.23;10.98;;;;;21.10;100369.00;;;;2058783;28;20261;-50
2022/11/14 02:04:23;;;;;;;11.37;10.27;;;;;21.10;100382.00;;;;2078473;28;20256;-50
2022/11/14 02:05:23;;;;;;;11.40;10.30;;;;;21.10;100381.00;;;;2071990;28;20214;-50
2022/11/14 02:06:25;;;;;;;11.93;10.53;;;;;21.10;100379.00;;;;2069979;28;20802;-50
2022/11/14 02:07:26;;;;;;;11.55;10.35;;;;;21.10;100384.00;;;;2078411;28;20227;-51
2022/11/14 02:08:27;;;;;;;10.98;9.88;;;;;21.10;100383.00;;;;2074358;28;20678;-50
2022/11/14 02:09:27;;;;;;;10.57;9.57;;;;;21.10;100382.00;;;;2062307;28;20224;-50
2022/11/14 02:10:28;;;;;;;10.70;9.70;;;;;21.10;100366.00;;;;2054518;28;20212;-50
2022/11/14 02:11:29;;;;;;;11.47;10.30;;;;;21.10;100380.00;;;;2062618;28;20306;-50
2022/11/14 02:12:29;;;;;;;12.40;10.40;;;;;21.00;100382.00;;;;2070218;28;20205;-50
2022/11/14 02:13:30;;;;;;;10.20;9.20;;;;;21.10;100371.00;;;;2070432;28;20210;-50
2022/11/14 02:14:30;;;;;;;11.77;10.57;;;;;21.10;100372.00;;;;2061703;28;20214;-50
2022/11/14 02:15:31;;;;;;;12.07;10.23;;;;;21.00;100372.00;;;;2061622;28;20306;-51
2022/11/14 02:16:31;;;;;;;11.70;10.50;;;;;21.00;100371.00;;;;2054283;28;20237;-51
2022/11/14 02:17:31;;;;;;;11.20;10.00;;;;;21.10;100368.00;;;;2054074;28;20610;-51
2022/11/14 02:18:32;;;;;;;10.60;9.40;;;;;21.10;100366.00;;;;2070157;28;20566;-51
2022/11/14 02:19:47;;;;;;;10.27;9.27;;;;;21.10;100367.00;;;;2071330;28;20582;-51
2022/11/14 02:20:47;;;;;;;10.70;9.60;;;;;21.10;100374.00;;;;2070772;28;20214;-50
2022/11/14 02:21:48;;;;;;;10.80;9.40;;;;;21.10;100377.00;;;;2070560;28;20248;-50
2022/11/14 02:22:48;;;;;;;10.37;9.37;;;;;21.10;100369.00;;;;2069836;28;20713;-51
2022/11/14 02:23:48;;;;;;;10.80;9.70;;;;;21.10;100372.00;;;;2071125;28;20233;-51
2022/11/14 02:24:49;;;;;;;9.63;8.73;;;;;21.10;100383.00;;;;2070962;28;20287;-51
2022/11/14 02:25:49;;;;;;;10.60;9.60;;;;;21.00;100374.00;;;;2070757;28;20218;-51
2022/11/14 02:26:49;;;;;;;10.27;9.37;;;;;21.00;100376.00;;;;2070197;28;20307;-50
2022/11/14 02:27:50;;;;;;;9.47;8.60;;;;;21.10;100378.00;;;;2070340;28;20210;-51
2022/11/14 02:28:50;;;;;;;11.00;9.90;;;;;21.00;100375.00;;;;2071108;28;20213;-51
2022/11/14 02:29:51;;;;;;;10.60;9.50;;;;;21.10;100379.00;;;;2070768;28;20222;-50
2022/11/14 02:30:51;;;;;;;9.23;8.33;;;;;21.10;100368.00;;;;2071181;28;20272;-50
2022/11/14 02:31:51;;;;;;;10.17;9.17;;;;;21.00;100378.00;;;;2069469;28;20214;-50
2022/11/14 02:32:52;;;;;;;9.90;8.90;;;;;21.10;100369.00;;;;2070972;28;20225;-51
2022/11/14 02:33:52;;;;;;;10.33;9.33;;;;;21.00;100376.00;;;;2070763;28;20206;-49
2022/11/14 02:34:52;;;;;;;9.80;8.80;;;;;21.00;100375.00;;;;2070621;28;20272;-50
2022/11/14 02:35:52;;;;;;;10.00;9.00;;;;;21.00;100377.00;;;;2070849;28;20214;-50
2022/11/14 02:36:53;;;;;;;9.80;8.90;;;;;21.00;100369.00;;;;2069729;28;20386;-50
2022/11/14 02:37:53;;;;;;;9.40;8.50;;;;;21.00;100364.00;;;;2071119;28;20313;-50
2022/11/14 02:38:53;;;;;;;9.47;8.57;;;;;21.00;100370.00;;;;2070910;28;20218;-50
2022/11/14 02:39:54;;;;;;;9.40;8.50;;;;;21.00;100352.00;;;;2071268;28;20229;-50
2022/11/14 02:40:54;;;;;;;9.03;8.20;;;;;21.00;100353.00;;;;2077950;28;20213;-49
2022/11/14 02:41:54;;;;;;;9.33;8.43;;;;;21.00;100351.00;;;;2069825;28;20233;-50
2022/11/14 02:42:55;;;;;;;9.70;8.80;;;;;21.00;100354.00;;;;2073391;28;20210;-50
2022/11/14 02:43:55;;;;;;;9.03;8.13;;;;;21.00;100353.00;;;;2078718;28;20237;-50
2022/11/14 02:44:55;;;;;;;8.70;7.90;;;;;21.00;100354.00;;;;2067121;28;20252;-51
2022/11/14 02:45:56;;;;;;;9.83;8.93;;;;;21.00;100351.00;;;;2073036;28;20698;-50
2022/11/14 02:46:56;;;;;;;9.60;8.67;;;;;21.00;100349.00;;;;2071326;28;20244;-51
2022/11/14 02:47:56;;;;;;;9.23;8.33;;;;;21.00;100364.00;;;;2070358;28;20635;-54
2022/11/14 02:48:57;;;;;;;9.77;8.87;;;;;21.00;100343.00;;;;2070830;28;20629;-52
2022/11/14 02:49:57;;;;;;;9.30;8.27;;;;;20.90;100352.00;;;;2075936;28;20703;-51
2022/11/14 02:50:57;;;;;;;10.40;8.73;;;;;20.90;100351.00;;;;2078797;28;20731;-51
2022/11/14 02:51:58;;;;;;;8.97;8.10;;;;;21.00;100346.00;;;;2078001;28;20221;-52
2022/11/14 02:52:58;;;;;;;8.73;7.93;;;;;21.00;100345.00;;;;2078710;28;20221;-52
2022/11/14 02:53:58;;;;;;;8.80;7.90;;;;;21.00;100351.00;;;;2078796;28;20304;-53
2022/11/14 02:54:59;;;;;;;8.93;8.03;;;;;21.00;100345.00;;;;2076708;28;20312;-51
2022/11/14 02:56:00;;;;;;;9.20;8.40;;;;;21.00;100349.00;;;;2069672;28;20229;-50
2022/11/14 02:57:00;;;;;;;9.30;8.40;;;;;21.00;100342.00;;;;2071197;28;20229;-51
2022/11/14 02:58:01;;;;;;;9.73;8.77;;;;;20.90;100354.00;;;;2070716;28;20472;-50
2022/11/14 02:59:01;;;;;;;9.80;8.80;;;;;21.00;100345.00;;;;2071170;28;20265;-51
2022/11/14 03:00:02;;;;;;;9.00;8.20;;;;;21.00;100347.00;;;;2071009;28;20594;-50
2022/11/14 03:01:03;;;;;;;9.60;8.70;;;;;20.90;100349.00;;;;2071027;28;20729;-50
2022/11/14 03:02:03;;;;;;;8.90;8.10;;;;;20.90;100350.00;;;;2070305;28;20226;-51
2022/11/14 03:03:03;;;;;;;9.57;8.70;;;;;20.90;100353.00;;;;2071334;28;20222;-51
2022/11/14 03:04:04;;;;;;;9.87;8.97;;;;;21.00;100341.00;;;;2070465;28;20225;-50
2022/11/14 03:05:04;;;;;;;8.90;8.10;;;;;20.90;100336.00;;;;2070906;28;20218;-50
2022/11/14 03:06:05;;;;;;;9.53;8.63;;;;;20.90;100335.00;;;;2070428;28;20710;-50
2022/11/14 03:07:06;;;;;;;9.60;8.70;;;;;20.90;100340.00;;;;2071181;28;20246;-51
2022/11/14 03:08:06;;;;;;;9.50;8.70;;;;;20.90;100335.00;;;;2071270;28;20219;-50
2022/11/14 03:09:06;;;;;;;9.60;8.80;;;;;20.90;100330.00;;;;2069364;28;20226;-50
2022/11/14 03:10:08;;;;;;;9.33;8.53;;;;;20.90;100334.00;;;;2070724;28;20293;-50
2022/11/14 03:11:08;;;;;;;8.85;8.05;;;;;20.90;100333.00;;;;2070748;28;20241;-50
2022/11/14 03:12:09;;;;;;;8.53;7.73;;;;;20.90;100333.00;;;;2070055;28;20226;-51
2022/11/14 03:13:09;;;;;;;9.70;8.80;;;;;20.90;100334.00;;;;2074156;28;20205;-50
2022/11/14 03:14:09;;;;;;;9.10;8.30;;;;;20.90;100331.00;;;;2078741;28;20217;-50
2022/11/14 03:15:10;;;;;;;8.97;8.10;;;;;20.90;100335.00;;;;2078548;28;20220;-51
2022/11/14 03:16:11;;;;;;;8.57;7.67;;;;;20.90;100334.00;;;;2073171;28;20706;-51
2022/11/14 03:17:11;;;;;;;8.88;8.07;;;;;20.90;100335.00;;;;2071081;28;20241;-50
2022/11/14 03:18:12;;;;;;;9.40;8.50;;;;;20.90;100332.00;;;;2070700;28;20221;-51
2022/11/14 03:19:12;;;;;;;8.57;7.77;;;;;20.90;100339.00;;;;2071008;28;20210;-51
2022/11/14 03:20:12;;;;;;;7.90;7.20;;;;;20.90;100336.00;;;;2070665;28;20244;-51
2022/11/14 03:21:17;;;;;;;8.20;7.40;;;;;20.90;100325.00;;;;2071036;28;20214;-50
2022/11/14 03:22:17;;;;;;;8.35;7.55;;;;;20.80;100330.00;;;;2078015;28;20205;-51
2022/11/14 03:23:18;;;;;;;8.63;7.93;;;;;20.90;100322.00;;;;2079155;28;20260;-51
2022/11/14 03:24:18;;;;;;;9.37;8.50;;;;;20.90;100320.00;;;;2078598;28;20220;-50
2022/11/14 03:25:18;;;;;;;9.10;8.20;;;;;20.90;100312.00;;;;2078594;28;20206;-51
2022/11/14 03:26:19;;;;;;;9.10;8.30;;;;;20.80;100315.00;;;;2076717;28;20220;-51
2022/11/14 03:27:19;;;;;;;9.40;8.50;;;;;20.80;100319.00;;;;2079128;28;20213;-50
2022/11/14 03:28:20;;;;;;;9.03;8.20;;;;;20.80;100314.00;;;;2079131;28;20225;-50
2022/11/14 03:29:20;;;;;;;8.80;7.90;;;;;20.80;100316.00;;;;2077270;28;20241;-51
2022/11/14 03:30:20;;;;;;;8.20;7.50;;;;;20.90;100322.00;;;;2078576;28;20225;-50
2022/11/14 03:31:21;;;;;;;9.37;8.47;;;;;20.80;100319.00;;;;2079162;28;20214;-51
2022/11/14 03:32:21;;;;;;;8.30;7.50;;;;;20.80;100317.00;;;;2077986;28;20216;-51
2022/11/14 03:33:21;;;;;;;7.83;7.13;;;;;20.80;100314.00;;;;2078975;28;20218;-51
2022/11/14 03:34:22;;;;;;;8.03;7.33;;;;;20.80;100314.00;;;;2078916;28;20261;-51
2022/11/14 03:35:22;;;;;;;8.03;7.33;;;;;20.80;100323.00;;;;2077788;28;20217;-50
2022/11/14 03:36:23;;;;;;;8.70;7.87;;;;;20.80;100319.00;;;;2070341;28;21475;-51
2022/11/14 03:37:23;;;;;;;8.20;7.50;;;;;20.80;100257.00;;;;2070147;28;20453;-51
2022/11/14 03:38:24;;;;;;;8.20;7.50;;;;;20.80;100316.00;;;;2070367;28;20659;-50
2022/11/14 03:39:24;;;;;;;8.20;7.40;;;;;20.80;100314.00;;;;2079084;28;20288;-50
2022/11/14 03:40:24;;;;;;;7.30;6.70;;;;;20.80;100312.00;;;;2078978;28;20780;-51
2022/11/14 03:41:25;;;;;;;8.27;7.57;;;;;20.80;100305.00;;;;2078908;28;20656;-50
2022/11/14 03:42:25;;;;;;;7.57;6.97;;;;;20.80;100316.00;;;;2077934;28;20232;-50
2022/11/14 03:43:31;;;;;;;8.00;7.33;;;;;20.80;100314.00;;;;2070163;28;20387;-51
2022/11/14 03:44:31;;;;;;;8.48;7.60;;;;;20.80;100315.00;;;;2062504;28;20222;-51
2022/11/14 03:45:32;;;;;;;8.60;7.80;;;;;20.80;100314.00;;;;2069918;28;20225;-50
2022/11/14 03:46:32;;;;;;;8.40;7.60;;;;;20.80;100326.00;;;;2070117;28;20214;-50
2022/11/14 03:47:32;;;;;;;7.80;7.10;;;;;20.80;100318.00;;;;2070727;28;20210;-50
2022/11/14 03:48:33;;;;;;;7.60;6.90;;;;;20.80;100312.00;;;;2072441;28;20225;-51
2022/11/14 03:49:33;;;;;;;7.57;6.87;;;;;20.80;100305.00;;;;2078961;28;20213;-51
2022/11/14 03:50:33;;;;;;;8.60;7.80;;;;;20.80;100307.00;;;;2078853;28;20217;-49
2022/11/14 03:51:34;;;;;;;8.00;7.20;;;;;20.80;100315.00;;;;2070400;28;20214;-50
2022/11/14 03:52:34;;;;;;;7.00;6.30;;;;;20.80;100312.00;;;;2069796;28;20345;-51
2022/11/14 03:53:34;;;;;;;8.50;7.70;;;;;20.80;100306.00;;;;2070712;28;20218;-49
2022/11/14 03:54:35;;;;;;;8.27;7.50;;;;;20.80;100317.00;;;;2070714;28;20279;-50
2022/11/14 03:55:35;;;;;;;7.63;7.03;;;;;20.80;100271.00;;;;2060780;28;20229;-50
2022/11/14 03:56:36;;;;;;;7.37;6.73;;;;;20.80;100308.00;;;;2068144;28;20306;-51
2022/11/14 03:57:36;;;;;;;7.70;7.00;;;;;20.80;100304.00;;;;2076862;28;20467;-50
2022/11/14 03:58:36;;;;;;;7.60;6.93;;;;;20.70;100316.00;;;;2070029;28;20234;-50
2022/11/14 03:59:36;;;;;;;7.17;6.53;;;;;20.70;100306.00;;;;2069175;28;20667;-52
2022/11/14 04:00:37;;;;;;;6.90;6.30;;;;;20.80;100243.00;;;;2068722;28;20618;-53
2022/11/14 04:01:37;;;;;;;7.33;6.73;;;;;20.80;100303.00;;;;2070359;28;20218;-51
2022/11/14 04:02:37;;;;;;;7.90;7.23;;;;;20.70;100305.00;;;;2071985;28;20218;-52
2022/11/14 04:03:38;;;;;;;8.00;7.30;;;;;20.70;100307.00;;;;2078102;28;20206;-52
2022/11/14 04:04:38;;;;;;;7.73;7.03;;;;;20.70;100303.00;;;;2070175;28;20214;-53
2022/11/14 04:05:38;;;;;;;7.17;6.30;;;;;20.70;100302.00;;;;2070288;28;20202;-52
2022/11/14 04:06:39;;;;;;;8.30;7.30;;;;;20.70;100302.00;;;;2070260;28;20276;-51
2022/11/14 04:07:39;;;;;;;7.63;7.03;;;;;20.70;100306.00;;;;2070463;28;20220;-50
2022/11/14 04:08:40;;;;;;;7.30;6.63;;;;;20.70;100300.00;;;;2070488;28;20206;-50
2022/11/14 04:09:40;;;;;;;7.97;7.23;;;;;20.70;100295.00;;;;2070726;28;20680;-50
2022/11/14 04:10:41;;;;;;;7.00;6.40;;;;;20.70;100290.00;;;;2070620;28;20210;-51
2022/11/14 04:11:41;;;;;;;7.60;6.90;;;;;20.70;100251.00;;;;2070147;28;20214;-48
2022/11/14 04:12:49;;;;;;;7.27;6.67;;;;;20.70;100237.00;;;;2072882;28;20218;-51
2022/11/14 04:13:49;;;;;;;7.40;6.80;;;;;20.70;100294.00;;;;2069975;28;20297;-51
2022/11/14 04:14:49;;;;;;;6.80;6.20;;;;;20.70;100295.00;;;;2069767;28;20217;-51
2022/11/14 04:15:56;;;;;;;6.80;6.20;;;;;20.70;100294.00;;;;2069690;28;20269;-51
2022/11/14 04:16:56;;;;;;;7.22;6.60;;;;;20.70;100297.00;;;;2070567;28;20206;-51
2022/11/14 04:17:57;;;;;;;7.10;6.40;;;;;20.70;100294.00;;;;2072581;28;20656;-50
2022/11/14 04:18:57;;;;;;;7.63;6.93;;;;;20.70;100291.00;;;;2070492;28;20858;-50
2022/11/14 04:19:57;;;;;;;7.27;6.57;;;;;20.70;100291.00;;;;2070558;28;20220;-50
2022/11/14 04:20:58;;;;;;;7.43;6.83;;;;;20.70;100288.00;;;;2070678;28;20215;-51
2022/11/14 04:21:58;;;;;;;7.87;7.10;;;;;20.70;100288.00;;;;2069546;28;20226;-50
2022/11/14 04:22:58;;;;;;;8.03;7.10;;;;;20.70;100288.00;;;;2070544;28;20222;-50
2022/11/14 04:23:59;;;;;;;7.50;6.83;;;;;20.70;100288.00;;;;2070393;28;20218;-50
2022/11/14 04:24:59;;;;;;;7.37;6.67;;;;;20.70;100288.00;;;;2071995;28;20290;-51
2022/11/14 04:26:00;;;;;;;7.47;6.87;;;;;20.60;100288.00;;;;2078586;28;20210;-50
2022/11/14 04:27:00;;;;;;;6.60;6.00;;;;;20.70;100281.00;;;;2078271;28;20290;-50
2022/11/14 04:28:01;;;;;;;7.17;6.57;;;;;20.60;100287.00;;;;2074440;28;20709;-49
2022/11/14 04:29:02;;;;;;;7.15;6.55;;;;;20.70;100278.00;;;;2072219;28;20586;-51
2022/11/14 04:30:04;;;;;;;7.20;6.50;;;;;20.60;100271.00;;;;2079190;28;20225;-51
2022/11/14 04:31:04;;;;;;;7.18;6.57;;;;;20.70;100282.00;;;;2079407;28;20990;-50
2022/11/14 04:32:04;;;;;;;7.57;6.97;;;;;20.60;100288.00;;;;2078734;28;20236;-50
2022/11/14 04:33:05;;;;;;;7.07;6.47;;;;;20.70;100276.00;;;;2080394;28;20681;-49
2022/11/14 04:34:05;;;;;;;6.63;6.03;;;;;20.70;100275.00;;;;2079932;28;20247;-50
2022/11/14 04:35:06;;;;;;;7.10;6.50;;;;;20.70;100273.00;;;;2079809;28;20298;-50
2022/11/14 04:36:06;;;;;;;7.37;6.77;;;;;20.70;100279.00;;;;2079783;28;20217;-50
2022/11/14 04:37:06;;;;;;;7.03;6.40;;;;;20.50;100282.00;;;;2080164;28;20883;-51
2022/11/14 04:38:08;;;;;;;6.87;6.27;;;;;20.60;100281.00;;;;2079605;28;20209;-51
2022/11/14 04:39:08;;;;;;;7.30;6.70;;;;;20.60;100282.00;;;;2071289;28;20214;-50
2022/11/14 04:40:09;;;;;;;8.03;7.33;;;;;20.60;100277.00;;;;2079231;28;20209;-50
2022/11/14 04:41:09;;;;;;;7.07;6.47;;;;;20.60;100284.00;;;;2080244;28;20224;-50
2022/11/14 04:42:10;;;;;;;7.30;6.60;;;;;20.60;100295.00;;;;2079348;28;20213;-49
2022/11/14 04:43:10;;;;;;;7.40;6.70;;;;;20.60;100292.00;;;;2080424;28;20372;-50
2022/11/14 04:44:10;;;;;;;8.03;7.33;;;;;20.60;100298.00;;;;2080190;28;20212;-50
2022/11/14 04:45:11;;;;;;;7.00;6.40;;;;;20.60;100291.00;;;;2080167;28;20209;-50
2022/11/14 04:46:11;;;;;;;7.50;6.70;;;;;20.60;100290.00;;;;2079826;28;20236;-50
2022/11/14 04:47:11;;;;;;;7.40;6.70;;;;;20.60;100291.00;;;;2080278;28;20224;-51
2022/11/14 04:48:12;;;;;;;7.40;6.70;;;;;20.60;100294.00;;;;2080293;28;20239;-50
2022/11/14 04:49:12;;;;;;;6.90;6.20;;;;;20.60;100286.00;;;;2080023;28;20213;-51
2022/11/14 04:50:12;;;;;;;7.33;6.63;;;;;20.60;100294.00;;;;2079928;28;20232;-50
2022/11/14 04:51:13;;;;;;;6.70;6.10;;;;;20.60;100293.00;;;;2080236;28;20221;-51
2022/11/14 04:52:13;;;;;;;6.57;6.07;;;;;20.60;100294.00;;;;2077742;28;20217;-50
2022/11/14 04:53:13;;;;;;;8.00;7.20;;;;;20.60;100287.00;;;;2079811;28;20205;-49
2022/11/14 04:54:14;;;;;;;8.23;7.10;;;;;20.60;100294.00;;;;2079623;28;20225;-50
2022/11/14 04:55:14;;;;;;;7.03;6.33;;;;;20.60;100288.00;;;;2075876;28;20310;-50
2022/11/14 04:56:14;;;;;;;6.90;6.30;;;;;20.60;100286.00;;;;2071046;28;20379;-49
2022/11/14 04:57:16;;;;;;;7.50;6.80;;;;;20.60;100281.00;;;;2071417;28;20627;-54